sensor_id;sensor_type;location;lat;lon;timestamp;pressure;altitude;pressure_sealevel;temperature;humidity
48089;BME280;33867;50.314;7.802;2023-02-21T00:01:38;100944.38;;;3.23;nan
48089;BME280;33867;50.314;7.802;2023-02-21T00:05:19;100937.94;;;3.28;nan
48089;BME280;33867;50.314;7.802;2023-02-21T00:08:59;100938.84;;;3.11;nan
48089;BME280;33867;50.314;7.802;2023-02-21T00:12:37;100934.19;;;2.99;nan
48089;BME280;33867;50.314;7.802;2023-02-21T00:16:16;100933.00;;;3.04;nan
48089;BME280;33867;50.314;7.802;2023-02-21T00:23:25;100922.97;;;3.09;nan
48089;BME280;33867;50.314;7.802;2023-02-21T00:27:03;100928.13;;;3.12;nan
48089;BME280;33867;50.314;7.802;2023-02-21T00:30:41;100926.63;;;3.07;nan
48089;BME280;33867;50.314;7.802;2023-02-21T00:34:19;100917.94;;;3.20;nan
48089;BME280;33867;50.314;7.802;2023-02-21T00:37:56;100922.34;;;3.04;nan
48089;BME280;33867;50.314;7.802;2023-02-21T00:41:34;100926.00;;;2.86;nan
48089;BME280;33867;50.314;7.802;2023-02-21T00:45:12;100927.00;;;2.83;nan
48089;BME280;33867;50.314;7.802;2023-02-21T00:48:51;100915.59;;;2.81;nan
48089;BME280;33867;50.314;7.802;2023-02-21T00:52:28;100912.81;;;3.00;nan
48089;BME280;33867;50.314;7.802;2023-02-21T00:56:09;100915.03;;;2.92;nan
48089;BME280;33867;50.314;7.802;2023-02-21T00:59:46;100917.00;;;2.71;nan
48089;BME280;33867;50.314;7.802;2023-02-21T01:03:24;100918.97;;;2.68;nan
48089;BME280;33867;50.314;7.802;2023-02-21T01:07:02;100920.94;;;2.64;nan
48089;BME280;33867;50.314;7.802;2023-02-21T01:10:40;100908.50;;;2.64;nan
48089;BME280;33867;50.314;7.802;2023-02-21T01:14:18;100923.69;;;2.62;nan
48089;BME280;33867;50.314;7.802;2023-02-21T01:17:55;100926.94;;;2.68;nan
48089;BME280;33867;50.314;7.802;2023-02-21T01:22:05;100930.50;;;2.51;nan
48089;BME280;33867;50.314;7.802;2023-02-21T01:25:43;100928.66;;;2.69;nan
48089;BME280;33867;50.314;7.802;2023-02-21T01:29:23;100934.63;;;2.56;nan
48089;BME280;33867;50.314;7.802;2023-02-21T01:33:01;100933.53;;;2.60;nan
48089;BME280;33867;50.314;7.802;2023-02-21T01:36:40;100937.28;;;2.39;nan
48089;BME280;33867;50.314;7.802;2023-02-21T01:40:18;100937.59;;;2.50;nan
48089;BME280;33867;50.314;7.802;2023-02-21T01:47:35;100937.28;;;2.56;nan
48089;BME280;33867;50.314;7.802;2023-02-21T01:51:16;100933.06;;;2.52;nan
48089;BME280;33867;50.314;7.802;2023-02-21T01:54:55;100935.03;;;2.49;nan
48089;BME280;33867;50.314;7.802;2023-02-21T01:58:34;100923.69;;;2.62;nan
48089;BME280;33867;50.314;7.802;2023-02-21T02:02:24;100921.03;;;2.62;nan
48089;BME280;33867;50.314;7.802;2023-02-21T02:06:06;100921.31;;;2.56;nan
48089;BME280;33867;50.314;7.802;2023-02-21T02:09:45;100918.19;;;2.48;nan
48089;BME280;33867;50.314;7.802;2023-02-21T02:13:37;100915.69;;;2.45;nan
48089;BME280;33867;50.314;7.802;2023-02-21T02:17:22;100916.72;;;2.43;nan
48089;BME280;33867;50.314;7.802;2023-02-21T02:35:58;100910.28;;;3.14;nan
48089;BME280;33867;50.314;7.802;2023-02-21T02:46:21;100910.25;;;3.32;nan
48089;BME280;33867;50.314;7.802;2023-02-21T02:49:42;100900.09;;;3.38;nan
48089;BME280;33867;50.314;7.802;2023-02-21T02:53:02;100898.28;;;3.39;nan
48089;BME280;33867;50.314;7.802;2023-02-21T02:56:22;100903.44;;;3.42;nan
48089;BME280;33867;50.314;7.802;2023-02-21T02:59:45;100897.69;;;3.49;nan
48089;BME280;33867;50.314;7.802;2023-02-21T03:07:00;100893.22;;;3.50;nan
48089;BME280;33867;50.314;7.802;2023-02-21T03:10:24;100894.19;;;3.49;nan
48089;BME280;33867;50.314;7.802;2023-02-21T03:17:15;100876.22;;;3.37;nan
48089;BME280;33867;50.314;7.802;2023-02-21T03:20:38;100880.97;;;3.32;nan
48089;BME280;33867;50.314;7.802;2023-02-21T03:24:00;100881.38;;;3.24;nan
48089;BME280;33867;50.314;7.802;2023-02-21T03:27:21;100879.38;;;3.12;nan
48089;BME280;33867;50.314;7.802;2023-02-21T03:30:53;100872.19;;;2.81;nan
48089;BME280;33867;50.314;7.802;2023-02-21T03:34:15;100876.75;;;2.94;nan
48089;BME280;33867;50.314;7.802;2023-02-21T03:37:38;100875.88;;;2.78;nan
48089;BME280;33867;50.314;7.802;2023-02-21T03:40:58;100871.38;;;2.63;nan
48089;BME280;33867;50.314;7.802;2023-02-21T03:44:18;100881.66;;;2.69;nan
48089;BME280;33867;50.314;7.802;2023-02-21T03:47:38;100877.38;;;2.67;nan
48089;BME280;33867;50.314;7.802;2023-02-21T03:50:57;100875.84;;;2.62;nan
48089;BME280;33867;50.314;7.802;2023-02-21T03:54:21;100880.69;;;2.54;nan
48089;BME280;33867;50.314;7.802;2023-02-21T03:57:44;100882.72;;;2.49;nan
48089;BME280;33867;50.314;7.802;2023-02-21T04:01:04;100885.59;;;2.45;nan
48089;BME280;33867;50.314;7.802;2023-02-21T04:04:24;100885.38;;;2.49;nan
48089;BME280;33867;50.314;7.802;2023-02-21T04:07:51;100886.63;;;2.42;nan
48089;BME280;33867;50.314;7.802;2023-02-21T04:11:10;100887.25;;;2.30;nan
48089;BME280;33867;50.314;7.802;2023-02-21T04:14:35;100891.16;;;2.40;nan
48089;BME280;33867;50.314;7.802;2023-02-21T04:17:54;100887.72;;;2.21;nan
48089;BME280;33867;50.314;7.802;2023-02-21T04:21:17;100887.63;;;2.22;nan
48089;BME280;33867;50.314;7.802;2023-02-21T04:24:37;100883.56;;;2.32;nan
48089;BME280;33867;50.314;7.802;2023-02-21T04:27:57;100887.72;;;2.21;nan
48089;BME280;33867;50.314;7.802;2023-02-21T04:31:16;100889.88;;;2.13;nan
48089;BME280;33867;50.314;7.802;2023-02-21T04:34:40;100876.47;;;2.16;nan
48089;BME280;33867;50.314;7.802;2023-02-21T04:38:02;100870.91;;;2.03;nan
48089;BME280;33867;50.314;7.802;2023-02-21T04:41:21;100879.09;;;1.98;nan
48089;BME280;33867;50.314;7.802;2023-02-21T04:44:40;100869.94;;;1.87;nan
48089;BME280;33867;50.314;7.802;2023-02-21T04:48:02;100874.88;;;1.94;nan
48089;BME280;33867;50.314;7.802;2023-02-21T04:51:23;100866.75;;;1.80;nan
48089;BME280;33867;50.314;7.802;2023-02-21T04:54:42;100869.25;;;1.83;nan
48089;BME280;33867;50.314;7.802;2023-02-21T04:58:01;100870.97;;;1.84;nan
48089;BME280;33867;50.314;7.802;2023-02-21T05:01:21;100874.47;;;1.67;nan
48089;BME280;33867;50.314;7.802;2023-02-21T05:04:40;100876.78;;;1.73;nan
48089;BME280;33867;50.314;7.802;2023-02-21T05:08:00;100872.75;;;1.66;nan
48089;BME280;33867;50.314;7.802;2023-02-21T05:11:20;100867.72;;;1.60;nan
48089;BME280;33867;50.314;7.802;2023-02-21T05:14:40;100876.72;;;1.75;nan
48089;BME280;33867;50.314;7.802;2023-02-21T05:17:59;100869.28;;;1.64;nan
48089;BME280;33867;50.314;7.802;2023-02-21T05:21:19;100869.84;;;1.71;nan
48089;BME280;33867;50.314;7.802;2023-02-21T05:24:40;100869.84;;;1.71;nan
48089;BME280;33867;50.314;7.802;2023-02-21T05:28:00;100870.13;;;1.65;nan
48089;BME280;33867;50.314;7.802;2023-02-21T05:31:21;100864.97;;;1.62;nan
48089;BME280;33867;50.314;7.802;2023-02-21T05:34:40;100868.34;;;1.65;nan
48089;BME280;33867;50.314;7.802;2023-02-21T05:38:02;100872.41;;;1.55;nan
48089;BME280;33867;50.314;7.802;2023-02-21T05:41:22;100873.53;;;1.50;nan
48089;BME280;33867;50.314;7.802;2023-02-21T05:44:44;100874.63;;;1.45;nan
48089;BME280;33867;50.314;7.802;2023-02-21T05:48:05;100873.38;;;1.53;nan
48089;BME280;33867;50.314;7.802;2023-02-21T05:51:32;100878.88;;;1.31;nan
48089;BME280;33867;50.314;7.802;2023-02-21T05:54:52;100881.50;;;1.50;nan
48089;BME280;33867;50.314;7.802;2023-02-21T05:58:11;100880.34;;;1.36;nan
48089;BME280;33867;50.314;7.802;2023-02-21T06:01:30;100884.22;;;1.29;nan
48089;BME280;33867;50.314;7.802;2023-02-21T06:04:50;100883.50;;;1.26;nan
48089;BME280;33867;50.314;7.802;2023-02-21T06:08:09;100886.97;;;1.09;nan
48089;BME280;33867;50.314;7.802;2023-02-21T06:11:32;100887.31;;;1.20;nan
48089;BME280;33867;50.314;7.802;2023-02-21T06:14:51;100896.06;;;1.22;nan
48089;BME280;33867;50.314;7.802;2023-02-21T06:18:14;100888.31;;;1.36;nan
48089;BME280;33867;50.314;7.802;2023-02-21T06:21:34;100890.53;;;1.27;nan
48089;BME280;33867;50.314;7.802;2023-02-21T06:24:56;100889.31;;;1.15;nan
48089;BME280;33867;50.314;7.802;2023-02-21T06:28:15;100888.66;;;1.29;nan
48089;BME280;33867;50.314;7.802;2023-02-21T06:31:35;100896.69;;;1.27;nan
48089;BME280;33867;50.314;7.802;2023-02-21T06:34:55;100883.75;;;1.21;nan
48089;BME280;33867;50.314;7.802;2023-02-21T06:38:17;100886.16;;;1.26;nan
48089;BME280;33867;50.314;7.802;2023-02-21T06:41:39;100884.53;;;1.23;nan
48089;BME280;33867;50.314;7.802;2023-02-21T06:45:00;100882.28;;;1.14;nan
48089;BME280;33867;50.314;7.802;2023-02-21T06:48:19;100884.53;;;1.23;nan
48089;BME280;33867;50.314;7.802;2023-02-21T06:51:40;100882.78;;;1.41;nan
48089;BME280;33867;50.314;7.802;2023-02-21T06:55:00;100883.28;;;1.49;nan
48089;BME280;33867;50.314;7.802;2023-02-21T06:58:20;100884.81;;;1.55;nan
48089;BME280;33867;50.314;7.802;2023-02-21T07:01:39;100878.63;;;1.54;nan
48089;BME280;33867;50.314;7.802;2023-02-21T07:05:00;100878.41;;;1.59;nan
48089;BME280;33867;50.314;7.802;2023-02-21T07:08:20;100879.88;;;1.64;nan
48089;BME280;33867;50.314;7.802;2023-02-21T07:11:42;100873.09;;;1.59;nan
48089;BME280;33867;50.314;7.802;2023-02-21T07:15:23;100876.09;;;1.70;nan
48089;BME280;33867;50.314;7.802;2023-02-21T07:18:53;100876.34;;;1.83;nan
48089;BME280;33867;50.314;7.802;2023-02-21T07:22:12;100863.78;;;1.86;nan
48089;BME280;33867;50.314;7.802;2023-02-21T07:25:31;100867.09;;;2.09;nan
48089;BME280;33867;50.314;7.802;2023-02-21T07:28:50;100862.94;;;2.20;nan
48089;BME280;33867;50.314;7.802;2023-02-21T07:32:09;100866.31;;;2.07;nan
48089;BME280;33867;50.314;7.802;2023-02-21T07:35:28;100864.28;;;2.29;nan
48089;BME280;33867;50.314;7.802;2023-02-21T07:42:35;100873.94;;;2.47;nan
48089;BME280;33867;50.314;7.802;2023-02-21T07:46:01;100879.66;;;2.57;nan
48089;BME280;33867;50.314;7.802;2023-02-21T07:49:19;100883.88;;;2.61;nan
48089;BME280;33867;50.314;7.802;2023-02-21T07:52:41;100879.56;;;2.58;nan
48089;BME280;33867;50.314;7.802;2023-02-21T07:56:04;100883.63;;;2.66;nan
48089;BME280;33867;50.314;7.802;2023-02-21T07:59:22;100885.19;;;2.70;nan
48089;BME280;33867;50.314;7.802;2023-02-21T08:02:46;100886.53;;;2.94;nan
48089;BME280;33867;50.314;7.802;2023-02-21T08:06:48;100880.28;;;2.95;nan
48089;BME280;33867;50.314;7.802;2023-02-21T08:10:07;100877.47;;;2.98;nan
48089;BME280;33867;50.314;7.802;2023-02-21T08:18:23;100880.84;;;3.17;nan
48089;BME280;33867;50.314;7.802;2023-02-21T08:21:46;100881.81;;;3.32;nan
48089;BME280;33867;50.314;7.802;2023-02-21T08:25:05;100871.50;;;3.42;nan
48089;BME280;33867;50.314;7.802;2023-02-21T08:28:25;100876.66;;;3.61;nan
48089;BME280;33867;50.314;7.802;2023-02-21T08:31:44;100874.25;;;3.72;nan
48089;BME280;33867;50.314;7.802;2023-02-21T08:35:03;100872.16;;;3.77;nan
48089;BME280;33867;50.314;7.802;2023-02-21T08:38:26;100862.72;;;3.87;nan
48089;BME280;33867;50.314;7.802;2023-02-21T08:41:48;100853.75;;;3.88;nan
48089;BME280;33867;50.314;7.802;2023-02-21T08:45:14;100852.56;;;3.94;nan
48089;BME280;33867;50.314;7.802;2023-02-21T08:48:34;100848.06;;;4.10;nan
48089;BME280;33867;50.314;7.802;2023-02-21T08:51:53;100843.84;;;4.06;nan
48089;BME280;33867;50.314;7.802;2023-02-21T08:55:13;100849.56;;;4.14;nan
48089;BME280;33867;50.314;7.802;2023-02-21T08:58:32;100850.84;;;4.23;nan
48089;BME280;33867;50.314;7.802;2023-02-21T09:01:53;100846.47;;;4.22;nan
48089;BME280;33867;50.314;7.802;2023-02-21T09:05:23;100840.31;;;4.35;nan
48089;BME280;33867;50.314;7.802;2023-02-21T09:08:44;100831.56;;;4.48;nan
48089;BME280;33867;50.314;7.802;2023-02-21T09:12:07;100833.88;;;4.54;nan
48089;BME280;33867;50.314;7.802;2023-02-21T09:15:27;100841.13;;;4.66;nan
48089;BME280;33867;50.314;7.802;2023-02-21T09:18:53;100836.34;;;4.57;nan
48089;BME280;33867;50.314;7.802;2023-02-21T09:22:13;100832.66;;;4.74;nan
48089;BME280;33867;50.314;7.802;2023-02-21T09:25:31;100830.84;;;4.74;nan
48089;BME280;33867;50.314;7.802;2023-02-21T09:28:51;100817.31;;;4.77;nan
48089;BME280;33867;50.314;7.802;2023-02-21T09:32:10;100820.16;;;5.03;nan
48089;BME280;33867;50.314;7.802;2023-02-21T09:35:29;100823.94;;;5.27;nan
48089;BME280;33867;50.314;7.802;2023-02-21T09:38:51;100820.09;;;5.45;nan
48089;BME280;33867;50.314;7.802;2023-02-21T09:42:15;100819.94;;;5.61;nan
48089;BME280;33867;50.314;7.802;2023-02-21T09:45:36;100814.84;;;5.71;nan
48089;BME280;33867;50.314;7.802;2023-02-21T09:48:55;100809.34;;;5.86;nan
48089;BME280;33867;50.314;7.802;2023-02-21T09:52:26;100806.44;;;6.04;nan
48089;BME280;33867;50.314;7.802;2023-02-21T09:55:50;100802.59;;;6.21;nan
48089;BME280;33867;50.314;7.802;2023-02-21T09:59:12;100800.69;;;6.35;nan
48089;BME280;33867;50.314;7.802;2023-02-21T10:02:40;100806.69;;;6.64;nan
48089;BME280;33867;50.314;7.802;2023-02-21T10:06:35;100803.22;;;7.00;nan
48089;BME280;33867;50.314;7.802;2023-02-21T10:10:05;100796.41;;;7.20;nan
48089;BME280;33867;50.314;7.802;2023-02-21T10:17:40;100791.31;;;7.89;nan
48089;BME280;33867;50.314;7.802;2023-02-21T10:20:57;100789.09;;;8.07;nan
48089;BME280;33867;50.314;7.802;2023-02-21T10:24:22;100796.53;;;8.49;nan
48089;BME280;33867;50.314;7.802;2023-02-21T10:27:41;100786.66;;;9.06;nan
48089;BME280;33867;50.314;7.802;2023-02-21T10:31:06;100787.31;;;9.53;nan
48089;BME280;33867;50.314;7.802;2023-02-21T10:34:27;100787.94;;;9.88;nan
48089;BME280;33867;50.314;7.802;2023-02-21T10:37:53;100789.91;;;11.31;nan
48089;BME280;33867;50.314;7.802;2023-02-21T10:41:15;100779.03;;;12.39;nan
48089;BME280;33867;50.314;7.802;2023-02-21T10:44:34;100784.50;;;12.66;nan
48089;BME280;33867;50.314;7.802;2023-02-21T10:48:03;100767.88;;;13.08;nan
48089;BME280;33867;50.314;7.802;2023-02-21T10:51:31;100777.44;;;13.57;nan
48089;BME280;33867;50.314;7.802;2023-02-21T10:58:29;100763.34;;;15.45;nan
48089;BME280;33867;50.314;7.802;2023-02-21T11:01:49;100760.09;;;15.33;nan
48089;BME280;33867;50.314;7.802;2023-02-21T11:05:18;100756.81;;;16.61;nan
48089;BME280;33867;50.314;7.802;2023-02-21T11:08:39;100742.69;;;17.21;nan
48089;BME280;33867;50.314;7.802;2023-02-21T11:12:03;100748.16;;;17.21;nan
48089;BME280;33867;50.314;7.802;2023-02-21T11:15:23;100744.28;;;16.36;nan
48089;BME280;33867;50.314;7.802;2023-02-21T11:18:45;100737.25;;;16.66;nan
48089;BME280;33867;50.314;7.802;2023-02-21T11:22:04;100726.38;;;17.21;nan
48089;BME280;33867;50.314;7.802;2023-02-21T11:28:45;100711.22;;;18.04;nan
48089;BME280;33867;50.314;7.802;2023-02-21T11:32:12;100703.28;;;17.71;nan
48089;BME280;33867;50.314;7.802;2023-02-21T11:35:46;100701.78;;;17.69;nan
48089;BME280;33867;50.314;7.802;2023-02-21T11:39:23;100687.78;;;17.95;nan
48089;BME280;33867;50.314;7.802;2023-02-21T11:42:45;100679.69;;;18.24;nan
48089;BME280;33867;50.314;7.802;2023-02-21T11:50:09;100671.28;;;17.73;nan
48089;BME280;33867;50.314;7.802;2023-02-21T11:53:38;100676.97;;;16.54;nan
48089;BME280;33867;50.314;7.802;2023-02-21T12:00:55;100655.69;;;16.11;nan
48089;BME280;33867;50.314;7.802;2023-02-21T12:04:29;100649.25;;;15.87;nan
48089;BME280;33867;50.314;7.802;2023-02-21T12:08:18;100641.34;;;15.11;nan
48089;BME280;33867;50.314;7.802;2023-02-21T12:15:24;100626.75;;;14.53;nan
48089;BME280;33867;50.314;7.802;2023-02-21T12:22:43;100618.34;;;15.56;nan
48089;BME280;33867;50.314;7.802;2023-02-21T12:37:28;100586.91;;;17.88;nan
48089;BME280;33867;50.314;7.802;2023-02-21T12:44:29;100576.84;;;18.48;nan
48089;BME280;33867;50.314;7.802;2023-02-21T12:48:18;100566.47;;;18.87;nan
48089;BME280;33867;50.314;7.802;2023-02-21T12:52:13;100575.25;;;19.04;nan
48089;BME280;33867;50.314;7.802;2023-02-21T12:56:07;100557.81;;;19.05;nan
48089;BME280;33867;50.314;7.802;2023-02-21T12:59:53;100549.31;;;19.36;nan
48089;BME280;33867;50.314;7.802;2023-02-21T13:07:10;100536.38;;;20.35;nan
48089;BME280;33867;50.314;7.802;2023-02-21T13:14:54;100528.81;;;20.79;nan
48089;BME280;33867;50.314;7.802;2023-02-21T13:18:22;100521.22;;;20.33;nan
48089;BME280;33867;50.314;7.802;2023-02-21T13:29:17;100504.00;;;21.00;nan
48089;BME280;33867;50.314;7.802;2023-02-21T13:32:38;100504.22;;;21.05;nan
48089;BME280;33867;50.314;7.802;2023-02-21T13:35:59;100493.94;;;19.42;nan
48089;BME280;33867;50.314;7.802;2023-02-21T13:39:37;100498.97;;;18.96;nan
48089;BME280;33867;50.314;7.802;2023-02-21T13:43:15;100486.06;;;19.89;nan
48089;BME280;33867;50.314;7.802;2023-02-21T13:49:57;100465.66;;;20.73;nan
48089;BME280;33867;50.314;7.802;2023-02-21T13:56:47;100468.03;;;19.60;nan
48089;BME280;33867;50.314;7.802;2023-02-21T14:03:48;100449.13;;;20.47;nan
48089;BME280;33867;50.314;7.802;2023-02-21T14:12:33;100450.22;;;19.14;nan
48089;BME280;33867;50.314;7.802;2023-02-21T14:16:15;100450.41;;;19.41;nan
48089;BME280;33867;50.314;7.802;2023-02-21T14:20:00;100449.31;;;19.91;nan
48089;BME280;33867;50.314;7.802;2023-02-21T14:32:25;100441.66;;;20.89;nan
48089;BME280;33867;50.314;7.802;2023-02-21T15:11:46;100405.31;;;19.45;nan
48089;BME280;33867;50.314;7.802;2023-02-21T15:20:27;100395.66;;;18.93;nan
48089;BME280;33867;50.314;7.802;2023-02-21T15:29:11;100398.06;;;18.38;nan
48089;BME280;33867;50.314;7.802;2023-02-21T15:32:34;100399.06;;;18.16;nan
48089;BME280;33867;50.314;7.802;2023-02-21T15:45:37;100392.34;;;17.53;nan
48089;BME280;33867;50.314;7.802;2023-02-21T15:49:29;100392.31;;;17.23;nan
48089;BME280;33867;50.314;7.802;2023-02-21T15:58:17;100380.59;;;16.71;nan
48089;BME280;33867;50.314;7.802;2023-02-21T16:02:05;100383.34;;;16.62;nan
48089;BME280;33867;50.314;7.802;2023-02-21T16:11:23;100388.63;;;15.71;nan
48089;BME280;33867;50.314;7.802;2023-02-21T16:15:58;100386.22;;;15.20;nan
48089;BME280;33867;50.314;7.802;2023-02-21T16:19:43;100385.72;;;15.17;nan
48089;BME280;33867;50.314;7.802;2023-02-21T16:33:08;100391.34;;;13.84;nan
48089;BME280;33867;50.314;7.802;2023-02-21T16:41:36;100378.41;;;13.27;nan
48089;BME280;33867;50.314;7.802;2023-02-21T16:45:36;100385.97;;;13.24;nan
48089;BME280;33867;50.314;7.802;2023-02-21T16:49:27;100387.13;;;12.95;nan
48089;BME280;33867;50.314;7.802;2023-02-21T16:52:56;100394.56;;;12.75;nan
48089;BME280;33867;50.314;7.802;2023-02-21T17:05:49;100394.72;;;11.85;nan
48089;BME280;33867;50.314;7.802;2023-02-21T17:09:27;100404.72;;;11.28;nan
48089;BME280;33867;50.314;7.802;2023-02-21T17:18:31;100420.00;;;10.80;nan
48089;BME280;33867;50.314;7.802;2023-02-21T17:21:55;100421.56;;;10.73;nan
48089;BME280;33867;50.314;7.802;2023-02-21T17:25:17;100423.53;;;10.71;nan
48089;BME280;33867;50.314;7.802;2023-02-21T17:28:39;100431.75;;;10.60;nan
48089;BME280;33867;50.314;7.802;2023-02-21T17:31:59;100434.44;;;10.41;nan
48089;BME280;33867;50.314;7.802;2023-02-21T17:35:24;100440.41;;;10.35;nan
48089;BME280;33867;50.314;7.802;2023-02-21T17:38:43;100440.41;;;10.35;nan
48089;BME280;33867;50.314;7.802;2023-02-21T17:42:03;100445.97;;;10.03;nan
48089;BME280;33867;50.314;7.802;2023-02-21T17:45:22;100435.94;;;9.64;nan
48089;BME280;33867;50.314;7.802;2023-02-21T17:48:42;100440.75;;;9.71;nan
48089;BME280;33867;50.314;7.802;2023-02-21T17:52:01;100442.31;;;9.63;nan
48089;BME280;33867;50.314;7.802;2023-02-21T17:55:24;100444.47;;;9.39;nan
48089;BME280;33867;50.314;7.802;2023-02-21T17:58:44;100448.75;;;9.21;nan
48089;BME280;33867;50.314;7.802;2023-02-21T18:02:04;100439.19;;;9.28;nan
48089;BME280;33867;50.314;7.802;2023-02-21T18:05:24;100449.22;;;9.26;nan
48089;BME280;33867;50.314;7.802;2023-02-21T18:08:43;100455.94;;;9.20;nan
48089;BME280;33867;50.314;7.802;2023-02-21T18:12:04;100443.78;;;8.95;nan
48089;BME280;33867;50.314;7.802;2023-02-21T18:15:25;100449.97;;;8.54;nan
48089;BME280;33867;50.314;7.802;2023-02-21T18:18:46;100451.69;;;8.55;nan
48089;BME280;33867;50.314;7.802;2023-02-21T18:22:05;100450.03;;;8.43;nan
48089;BME280;33867;50.314;7.802;2023-02-21T18:25:24;100450.88;;;8.32;nan
48089;BME280;33867;50.314;7.802;2023-02-21T18:28:44;100453.41;;;8.45;nan
48089;BME280;33867;50.314;7.802;2023-02-21T18:32:06;100444.88;;;8.40;nan
48089;BME280;33867;50.314;7.802;2023-02-21T18:35:25;100446.97;;;8.36;nan
48089;BME280;33867;50.314;7.802;2023-02-21T18:38:45;100448.94;;;8.34;nan
48089;BME280;33867;50.314;7.802;2023-02-21T18:42:04;100452.25;;;8.15;nan
48089;BME280;33867;50.314;7.802;2023-02-21T18:45:23;100449.00;;;8.01;nan
48089;BME280;33867;50.314;7.802;2023-02-21T18:48:45;100454.38;;;7.89;nan
48089;BME280;33867;50.314;7.802;2023-02-21T18:52:05;100465.50;;;7.51;nan
48089;BME280;33867;50.314;7.802;2023-02-21T18:55:24;100463.91;;;7.38;nan
48089;BME280;33867;50.314;7.802;2023-02-21T18:58:45;100462.56;;;7.54;nan
48089;BME280;33867;50.314;7.802;2023-02-21T19:02:05;100464.88;;;7.48;nan
48089;BME280;33867;50.314;7.802;2023-02-21T19:05:24;100470.72;;;7.42;nan
48089;BME280;33867;50.314;7.802;2023-02-21T19:08:47;100469.44;;;7.01;nan
48089;BME280;33867;50.314;7.802;2023-02-21T19:12:08;100462.47;;;6.87;nan
48089;BME280;33867;50.314;7.802;2023-02-21T19:15:28;100463.69;;;6.94;nan
48089;BME280;33867;50.314;7.802;2023-02-21T19:18:54;100456.09;;;7.12;nan
48089;BME280;33867;50.314;7.802;2023-02-21T19:22:13;100470.44;;;7.11;nan
48089;BME280;33867;50.314;7.802;2023-02-21T19:25:32;100475.53;;;7.03;nan
48089;BME280;33867;50.314;7.802;2023-02-21T19:28:51;100469.22;;;7.15;nan
48089;BME280;33867;50.314;7.802;2023-02-21T19:32:11;100479.53;;;7.09;nan
48089;BME280;33867;50.314;7.802;2023-02-21T19:35:31;100477.78;;;6.85;nan
48089;BME280;33867;50.314;7.802;2023-02-21T19:38:50;100478.72;;;6.73;nan
48089;BME280;33867;50.314;7.802;2023-02-21T19:42:09;100482.44;;;6.59;nan
48089;BME280;33867;50.314;7.802;2023-02-21T19:45:29;100472.66;;;6.47;nan
48089;BME280;33867;50.314;7.802;2023-02-21T19:48:48;100472.66;;;6.47;nan
48089;BME280;33867;50.314;7.802;2023-02-21T19:52:07;100471.97;;;6.56;nan
48089;BME280;33867;50.314;7.802;2023-02-21T19:55:28;100477.38;;;6.43;nan
48089;BME280;33867;50.314;7.802;2023-02-21T19:58:47;100479.97;;;6.08;nan
48089;BME280;33867;50.314;7.802;2023-02-21T20:02:10;100476.72;;;5.92;nan
48089;BME280;33867;50.314;7.802;2023-02-21T20:05:29;100483.16;;;6.13;nan
48089;BME280;33867;50.314;7.802;2023-02-21T20:08:49;100483.22;;;6.25;nan
48089;BME280;33867;50.314;7.802;2023-02-21T20:12:08;100476.91;;;6.26;nan
48089;BME280;33867;50.314;7.802;2023-02-21T20:15:27;100483.28;;;6.12;nan
48089;BME280;33867;50.314;7.802;2023-02-21T20:18:48;100484.78;;;6.03;nan
48089;BME280;33867;50.314;7.802;2023-02-21T20:22:07;100477.53;;;6.05;nan
48089;BME280;33867;50.314;7.802;2023-02-21T20:25:26;100480.75;;;5.98;nan
48089;BME280;33867;50.314;7.802;2023-02-21T20:28:46;100484.28;;;5.98;nan
48089;BME280;33867;50.314;7.802;2023-02-21T20:32:08;100481.53;;;5.74;nan
48089;BME280;33867;50.314;7.802;2023-02-21T20:35:27;100477.16;;;5.73;nan
48089;BME280;33867;50.314;7.802;2023-02-21T20:38:47;100476.06;;;5.76;nan
48089;BME280;33867;50.314;7.802;2023-02-21T20:42:06;100472.44;;;5.77;nan
48089;BME280;33867;50.314;7.802;2023-02-21T20:45:26;100466.72;;;5.57;nan
48089;BME280;33867;50.314;7.802;2023-02-21T20:48:45;100470.66;;;5.52;nan
48089;BME280;33867;50.314;7.802;2023-02-21T20:52:05;100472.69;;;5.48;nan
48089;BME280;33867;50.314;7.802;2023-02-21T20:55:24;100473.66;;;5.47;nan
48089;BME280;33867;50.314;7.802;2023-02-21T20:58:43;100472.25;;;5.42;nan
48089;BME280;33867;50.314;7.802;2023-02-21T21:02:03;100470.78;;;5.25;nan
48089;BME280;33867;50.314;7.802;2023-02-21T21:05:22;100471.75;;;5.24;nan
48089;BME280;33867;50.314;7.802;2023-02-21T21:08:42;100480.28;;;5.29;nan
48089;BME280;33867;50.314;7.802;2023-02-21T21:12:08;100473.75;;;5.08;nan
48089;BME280;33867;50.314;7.802;2023-02-21T21:15:27;100470.78;;;4.99;nan
48089;BME280;33867;50.314;7.802;2023-02-21T21:18:46;100478.22;;;4.94;nan
48089;BME280;33867;50.314;7.802;2023-02-21T21:22:08;100478.66;;;4.88;nan
48089;BME280;33867;50.314;7.802;2023-02-21T21:25:27;100475.25;;;4.86;nan
48089;BME280;33867;50.314;7.802;2023-02-21T21:28:52;100473.97;;;4.92;nan
48089;BME280;33867;50.314;7.802;2023-02-21T21:32:24;100473.50;;;4.85;nan
48089;BME280;33867;50.314;7.802;2023-02-21T21:35:43;100476.28;;;4.71;nan
48089;BME280;33867;50.314;7.802;2023-02-21T21:39:02;100474.56;;;4.70;nan
48089;BME280;33867;50.314;7.802;2023-02-21T21:42:25;100470.94;;;4.71;nan
48089;BME280;33867;50.314;7.802;2023-02-21T21:45:44;100472.00;;;4.68;nan
48089;BME280;33867;50.314;7.802;2023-02-21T21:49:04;100470.50;;;4.64;nan
48089;BME280;33867;50.314;7.802;2023-02-21T21:52:23;100464.31;;;4.37;nan
48089;BME280;33867;50.314;7.802;2023-02-21T21:55:42;100469.75;;;4.35;nan
48089;BME280;33867;50.314;7.802;2023-02-21T21:59:09;100472.38;;;4.50;nan
48089;BME280;33867;50.314;7.802;2023-02-21T22:02:28;100463.38;;;4.38;nan
48089;BME280;33867;50.314;7.802;2023-02-21T22:05:47;100464.44;;;4.35;nan
48089;BME280;33867;50.314;7.802;2023-02-21T22:09:10;100469.97;;;4.32;nan
48089;BME280;33867;50.314;7.802;2023-02-21T22:12:32;100465.06;;;4.26;nan
48089;BME280;33867;50.314;7.802;2023-02-21T22:15:52;100454.94;;;4.31;nan
48089;BME280;33867;50.314;7.802;2023-02-21T22:19:11;100451.91;;;4.23;nan